sensor_id;sensor_type;location;lat;lon;timestamp;pressure;altitude;pressure_sealevel;temperature;humidity
72900;BME280;61043;52.036;5.566;2022-08-19T00:01:59;101410.56;;;20.85;74.66
72900;BME280;61043;52.036;5.566;2022-08-19T00:04:30;101419.28;;;20.79;75.17
72900;BME280;61043;52.036;5.566;2022-08-19T00:06:58;101428.50;;;20.76;74.93
72900;BME280;61043;52.036;5.566;2022-08-19T00:09:25;101427.69;;;20.76;74.82
72900;BME280;61043;52.036;5.566;2022-08-19T00:11:53;101413.16;;;20.68;74.70
72900;BME280;61043;52.036;5.566;2022-08-19T00:14:23;101426.16;;;20.73;74.21
72900;BME280;61043;52.036;5.566;2022-08-19T00:16:52;101433.72;;;20.78;73.51
72900;BME280;61043;52.036;5.566;2022-08-19T00:19:22;101436.91;;;20.73;74.59
72900;BME280;61043;52.036;5.566;2022-08-19T00:21:49;101434.38;;;20.71;74.21
72900;BME280;61043;52.036;5.566;2022-08-19T00:24:16;101431.31;;;20.66;74.53
72900;BME280;61043;52.036;5.566;2022-08-19T00:26:43;101427.59;;;20.67;74.47
72900;BME280;61043;52.036;5.566;2022-08-19T00:29:14;101438.34;;;20.67;74.63
72900;BME280;61043;52.036;5.566;2022-08-19T00:31:42;101433.66;;;20.69;74.02
72900;BME280;61043;52.036;5.566;2022-08-19T00:34:10;101408.19;;;20.56;73.59
72900;BME280;61043;52.036;5.566;2022-08-19T00:36:39;101430.00;;;20.70;73.65
72900;BME280;61043;52.036;5.566;2022-08-19T00:39:06;101411.00;;;20.54;74.50
72900;BME280;61043;52.036;5.566;2022-08-19T00:41:33;101414.41;;;20.56;74.27
72900;BME280;61043;52.036;5.566;2022-08-19T00:44:05;101412.13;;;20.51;73.77
72900;BME280;61043;52.036;5.566;2022-08-19T00:46:34;101429.56;;;20.57;74.00
72900;BME280;61043;52.036;5.566;2022-08-19T00:52:09;101415.16;;;20.48;74.00
72900;BME280;61043;52.036;5.566;2022-08-19T00:54:39;101427.75;;;20.48;74.49
72900;BME280;61043;52.036;5.566;2022-08-19T00:57:12;101410.81;;;20.29;74.58
72900;BME280;61043;52.036;5.566;2022-08-19T00:59:42;101422.63;;;20.37;74.53
72900;BME280;61043;52.036;5.566;2022-08-19T01:02:27;101431.22;;;20.40;73.58
72900;BME280;61043;52.036;5.566;2022-08-19T01:04:55;101426.31;;;20.36;73.94
72900;BME280;61043;52.036;5.566;2022-08-19T01:07:22;101413.81;;;20.26;74.59
72900;BME280;61043;52.036;5.566;2022-08-19T01:09:49;101406.19;;;20.22;74.55
72900;BME280;61043;52.036;5.566;2022-08-19T01:12:16;101419.47;;;20.23;74.94
72900;BME280;61043;52.036;5.566;2022-08-19T01:14:44;101410.66;;;20.13;74.91
72900;BME280;61043;52.036;5.566;2022-08-19T01:17:12;101396.34;;;19.95;75.23
72900;BME280;61043;52.036;5.566;2022-08-19T01:19:41;101412.19;;;19.98;75.83
72900;BME280;61043;52.036;5.566;2022-08-19T01:22:32;101426.16;;;20.01;75.68
72900;BME280;61043;52.036;5.566;2022-08-19T01:25:03;101422.78;;;19.99;75.24
72900;BME280;61043;52.036;5.566;2022-08-19T01:27:42;101424.75;;;19.97;75.19
72900;BME280;61043;52.036;5.566;2022-08-19T01:30:14;101431.66;;;20.00;75.03
72900;BME280;61043;52.036;5.566;2022-08-19T01:32:41;101425.25;;;19.93;75.74
72900;BME280;61043;52.036;5.566;2022-08-19T01:35:11;101428.44;;;19.96;75.06
72900;BME280;61043;52.036;5.566;2022-08-19T01:38:07;101435.81;;;19.94;75.38
72900;BME280;61043;52.036;5.566;2022-08-19T01:40:37;101436.13;;;19.91;75.44
72900;BME280;61043;52.036;5.566;2022-08-19T01:43:04;101426.84;;;19.85;75.96
72900;BME280;61043;52.036;5.566;2022-08-19T01:45:33;101430.34;;;19.86;75.51
72900;BME280;61043;52.036;5.566;2022-08-19T01:48:01;101424.59;;;19.81;75.80
72900;BME280;61043;52.036;5.566;2022-08-19T01:50:30;101423.75;;;19.80;75.45
72900;BME280;61043;52.036;5.566;2022-08-19T01:52:57;101424.75;;;19.79;75.57
72900;BME280;61043;52.036;5.566;2022-08-19T01:55:34;101428.28;;;19.80;75.59
72900;BME280;61043;52.036;5.566;2022-08-19T01:58:30;101429.47;;;19.68;75.71
72900;BME280;61043;52.036;5.566;2022-08-19T02:00:57;101433.09;;;19.76;75.64
72900;BME280;61043;52.036;5.566;2022-08-19T02:03:24;101421.84;;;19.63;76.11
72900;BME280;61043;52.036;5.566;2022-08-19T02:05:55;101433.84;;;19.69;76.03
72900;BME280;61043;52.036;5.566;2022-08-19T02:08:22;101407.16;;;19.57;75.60
72900;BME280;61043;52.036;5.566;2022-08-19T02:10:49;101395.09;;;19.43;76.07
72900;BME280;61043;52.036;5.566;2022-08-19T02:13:16;101418.44;;;19.61;75.06
72900;BME280;61043;52.036;5.566;2022-08-19T02:15:51;101426.38;;;19.62;75.54
72900;BME280;61043;52.036;5.566;2022-08-19T02:18:18;101435.88;;;19.57;76.28
72900;BME280;61043;52.036;5.566;2022-08-19T02:20:45;101437.72;;;19.56;75.94
72900;BME280;61043;52.036;5.566;2022-08-19T02:23:15;101436.31;;;19.52;76.07
72900;BME280;61043;52.036;5.566;2022-08-19T02:25:45;101419.41;;;19.42;75.86
72900;BME280;61043;52.036;5.566;2022-08-19T02:28:12;101428.69;;;19.48;76.07
72900;BME280;61043;52.036;5.566;2022-08-19T02:30:44;101436.53;;;19.41;76.64
72900;BME280;61043;52.036;5.566;2022-08-19T02:33:10;101446.84;;;19.36;76.49
72900;BME280;61043;52.036;5.566;2022-08-19T02:35:41;101456.69;;;19.45;75.96
72900;BME280;61043;52.036;5.566;2022-08-19T02:38:08;101442.63;;;19.33;76.27
72900;BME280;61043;52.036;5.566;2022-08-19T02:43:22;101454.66;;;19.29;75.66
72900;BME280;61043;52.036;5.566;2022-08-19T02:45:50;101456.91;;;19.34;75.78
72900;BME280;61043;52.036;5.566;2022-08-19T02:48:19;101456.75;;;19.35;76.37
72900;BME280;61043;52.036;5.566;2022-08-19T02:50:48;101449.97;;;19.31;76.26
72900;BME280;61043;52.036;5.566;2022-08-19T02:53:19;101440.13;;;19.22;76.42
72900;BME280;61043;52.036;5.566;2022-08-19T02:55:46;101447.72;;;19.27;76.15
72900;BME280;61043;52.036;5.566;2022-08-19T02:58:14;101453.41;;;19.24;76.13
72900;BME280;61043;52.036;5.566;2022-08-19T03:00:45;101453.66;;;19.30;75.84
72900;BME280;61043;52.036;5.566;2022-08-19T03:03:12;101428.72;;;19.10;76.38
72900;BME280;61043;52.036;5.566;2022-08-19T03:05:39;101454.53;;;19.21;76.59
72900;BME280;61043;52.036;5.566;2022-08-19T03:08:22;101456.81;;;19.16;76.51
72900;BME280;61043;52.036;5.566;2022-08-19T03:10:50;101443.28;;;19.08;76.48
72900;BME280;61043;52.036;5.566;2022-08-19T03:13:18;101437.91;;;19.08;76.08
72900;BME280;61043;52.036;5.566;2022-08-19T03:15:46;101456.81;;;19.16;76.62
72900;BME280;61043;52.036;5.566;2022-08-19T03:18:14;101447.94;;;19.06;76.87
72900;BME280;61043;52.036;5.566;2022-08-19T03:20:46;101458.09;;;19.12;76.53
72900;BME280;61043;52.036;5.566;2022-08-19T03:23:13;101444.41;;;19.05;76.14
72900;BME280;61043;52.036;5.566;2022-08-19T03:25:44;101455.13;;;19.15;75.68
72900;BME280;61043;52.036;5.566;2022-08-19T03:28:13;101453.41;;;19.14;76.03
72900;BME280;61043;52.036;5.566;2022-08-19T03:30:42;101458.09;;;19.12;76.26
72900;BME280;61043;52.036;5.566;2022-08-19T03:33:10;101455.88;;;19.07;76.16
72900;BME280;61043;52.036;5.566;2022-08-19T03:35:43;101451.75;;;19.03;76.13
72900;BME280;61043;52.036;5.566;2022-08-19T03:38:11;101450.78;;;19.04;75.70
72900;BME280;61043;52.036;5.566;2022-08-19T03:40:37;101445.72;;;18.91;76.87
72900;BME280;61043;52.036;5.566;2022-08-19T03:43:04;101452.91;;;18.91;76.88
72900;BME280;61043;52.036;5.566;2022-08-19T03:45:31;101442.47;;;18.88;77.26
72900;BME280;61043;52.036;5.566;2022-08-19T03:47:58;101453.22;;;18.88;77.09
72900;BME280;61043;52.036;5.566;2022-08-19T03:50:25;101443.91;;;18.82;77.00
72900;BME280;61043;52.036;5.566;2022-08-19T03:52:51;101450.09;;;18.83;77.19
72900;BME280;61043;52.036;5.566;2022-08-19T03:55:19;101445.88;;;18.80;77.08
72900;BME280;61043;52.036;5.566;2022-08-19T03:57:45;101448.41;;;18.72;77.34
72900;BME280;61043;52.036;5.566;2022-08-19T04:00:14;101450.38;;;18.70;77.91
72900;BME280;61043;52.036;5.566;2022-08-19T04:02:41;101458.59;;;18.68;78.37
72900;BME280;61043;52.036;5.566;2022-08-19T04:05:24;101448.56;;;18.61;78.50
72900;BME280;61043;52.036;5.566;2022-08-19T04:07:53;101446.03;;;18.59;78.03
72900;BME280;61043;52.036;5.566;2022-08-19T04:10:23;101432.06;;;18.55;77.91
72900;BME280;61043;52.036;5.566;2022-08-19T04:12:50;101424.84;;;18.56;78.10
72900;BME280;61043;52.036;5.566;2022-08-19T04:15:17;101419.19;;;18.49;79.05
72900;BME280;61043;52.036;5.566;2022-08-19T04:17:44;101433.47;;;18.50;78.74
72900;BME280;61043;52.036;5.566;2022-08-19T04:20:10;101416.97;;;18.45;78.43
72900;BME280;61043;52.036;5.566;2022-08-19T04:22:37;101418.94;;;18.43;79.30
72900;BME280;61043;52.036;5.566;2022-08-19T04:25:04;101430.50;;;18.43;78.91
72900;BME280;61043;52.036;5.566;2022-08-19T04:27:30;101424.16;;;18.44;78.46
72900;BME280;61043;52.036;5.566;2022-08-19T04:29:57;101422.75;;;18.40;77.97
72900;BME280;61043;52.036;5.566;2022-08-19T04:32:24;101433.31;;;18.51;78.10
72900;BME280;61043;52.036;5.566;2022-08-19T04:34:50;101425.44;;;18.50;77.62
72900;BME280;61043;52.036;5.566;2022-08-19T04:37:38;101418.78;;;18.54;76.80
72900;BME280;61043;52.036;5.566;2022-08-19T04:40:05;101420.50;;;18.55;76.97
72900;BME280;61043;52.036;5.566;2022-08-19T04:42:51;101427.41;;;18.58;77.11
72900;BME280;61043;52.036;5.566;2022-08-19T04:45:18;101424.00;;;18.55;76.66
72900;BME280;61043;52.036;5.566;2022-08-19T04:47:48;101420.34;;;18.56;76.59
72900;BME280;61043;52.036;5.566;2022-08-19T04:50:27;101416.81;;;18.56;76.33
72900;BME280;61043;52.036;5.566;2022-08-19T04:52:54;101422.31;;;18.54;76.66
72900;BME280;61043;52.036;5.566;2022-08-19T04:55:22;101426.41;;;18.59;76.61
72900;BME280;61043;52.036;5.566;2022-08-19T04:57:49;101431.78;;;18.59;77.52
72900;BME280;61043;52.036;5.566;2022-08-19T05:00:16;101423.59;;;18.50;77.26
72900;BME280;61043;52.036;5.566;2022-08-19T05:02:43;101432.06;;;18.55;76.96
72900;BME280;61043;52.036;5.566;2022-08-19T05:05:09;101436.41;;;18.56;77.07
72900;BME280;61043;52.036;5.566;2022-08-19T05:07:36;101436.00;;;18.51;78.90
72900;BME280;61043;52.036;5.566;2022-08-19T05:10:05;101448.00;;;18.57;78.11
72900;BME280;61043;52.036;5.566;2022-08-19T05:12:31;101442.06;;;18.44;79.52
72900;BME280;61043;52.036;5.566;2022-08-19T05:14:59;101442.22;;;18.23;80.92
72900;BME280;61043;52.036;5.566;2022-08-19T05:17:26;101439.09;;;18.18;81.52
72900;BME280;61043;52.036;5.566;2022-08-19T05:19:58;101432.88;;;17.98;82.07
72900;BME280;61043;52.036;5.566;2022-08-19T05:22:46;101435.72;;;17.96;82.45
72900;BME280;61043;52.036;5.566;2022-08-19T05:25:17;101449.38;;;18.03;82.60
72900;BME280;61043;52.036;5.566;2022-08-19T05:27:46;101439.53;;;18.03;82.35
72900;BME280;61043;52.036;5.566;2022-08-19T05:30:13;101431.34;;;18.15;80.80
72900;BME280;61043;52.036;5.566;2022-08-19T05:32:41;101454.78;;;18.42;79.98
72900;BME280;61043;52.036;5.566;2022-08-19T05:35:08;101458.88;;;18.55;78.76
72900;BME280;61043;52.036;5.566;2022-08-19T05:37:35;101444.19;;;18.60;78.41
72900;BME280;61043;52.036;5.566;2022-08-19T05:40:03;101427.25;;;18.59;78.06
72900;BME280;61043;52.036;5.566;2022-08-19T05:42:30;101456.59;;;18.90;77.46
72900;BME280;61043;52.036;5.566;2022-08-19T05:44:57;101458.38;;;19.09;76.72
72900;BME280;61043;52.036;5.566;2022-08-19T05:47:24;101446.78;;;19.18;76.44
72900;BME280;61043;52.036;5.566;2022-08-19T05:49:51;101445.75;;;19.29;76.52
72900;BME280;61043;52.036;5.566;2022-08-19T05:52:18;101453.06;;;19.36;76.17
72900;BME280;61043;52.036;5.566;2022-08-19T05:54:51;101468.00;;;19.49;75.60
72900;BME280;61043;52.036;5.566;2022-08-19T05:57:21;101458.34;;;19.56;75.99
72900;BME280;61043;52.036;5.566;2022-08-19T05:59:51;101453.53;;;19.59;77.41
72900;BME280;61043;52.036;5.566;2022-08-19T06:02:27;101454.69;;;19.57;75.81
72900;BME280;61043;52.036;5.566;2022-08-19T06:04:54;101461.16;;;19.64;74.65
72900;BME280;61043;52.036;5.566;2022-08-19T06:07:21;101440.53;;;19.55;77.20
72900;BME280;61043;52.036;5.566;2022-08-19T06:09:47;101448.28;;;19.68;76.94
72900;BME280;61043;52.036;5.566;2022-08-19T06:12:27;101455.47;;;19.77;78.12
72900;BME280;61043;52.036;5.566;2022-08-19T06:14:59;101461.06;;;19.83;78.66
72900;BME280;61043;52.036;5.566;2022-08-19T06:17:29;101457.09;;;19.88;78.02
72900;BME280;61043;52.036;5.566;2022-08-19T06:19:57;101453.72;;;19.85;77.79
72900;BME280;61043;52.036;5.566;2022-08-19T06:22:25;101440.66;;;19.91;77.66
72900;BME280;61043;52.036;5.566;2022-08-19T06:24:52;101448.50;;;20.02;77.49
72900;BME280;61043;52.036;5.566;2022-08-19T06:27:20;101443.13;;;20.02;77.03
72900;BME280;61043;52.036;5.566;2022-08-19T06:29:47;101452.66;;;20.14;76.14
72900;BME280;61043;52.036;5.566;2022-08-19T06:32:15;101462.88;;;20.11;77.63
72900;BME280;61043;52.036;5.566;2022-08-19T06:34:43;101458.94;;;20.05;78.10
72900;BME280;61043;52.036;5.566;2022-08-19T06:37:11;101460.97;;;20.03;77.55
72900;BME280;61043;52.036;5.566;2022-08-19T06:39:40;101452.13;;;19.93;77.88
72900;BME280;61043;52.036;5.566;2022-08-19T06:42:07;101472.25;;;20.06;77.17
72900;BME280;61043;52.036;5.566;2022-08-19T06:44:39;101461.75;;;20.13;77.66
72900;BME280;61043;52.036;5.566;2022-08-19T06:47:12;101457.34;;;20.30;76.66
72900;BME280;61043;52.036;5.566;2022-08-19T06:49:48;101455.94;;;20.44;77.03
72900;BME280;61043;52.036;5.566;2022-08-19T06:52:15;101466.53;;;20.55;75.96
72900;BME280;61043;52.036;5.566;2022-08-19T06:54:42;101467.06;;;20.59;75.58
72900;BME280;61043;52.036;5.566;2022-08-19T06:57:21;101468.22;;;20.56;75.17
72900;BME280;61043;52.036;5.566;2022-08-19T06:59:48;101467.97;;;20.49;75.48
72900;BME280;61043;52.036;5.566;2022-08-19T07:02:15;101452.22;;;20.37;75.89
72900;BME280;61043;52.036;5.566;2022-08-19T07:04:46;101466.06;;;20.42;75.93
72900;BME280;61043;52.036;5.566;2022-08-19T07:07:19;101469.34;;;20.36;75.87
72900;BME280;61043;52.036;5.566;2022-08-19T07:09:48;101468.03;;;20.40;76.01
72900;BME280;61043;52.036;5.566;2022-08-19T07:12:26;101450.88;;;20.41;76.34
72900;BME280;61043;52.036;5.566;2022-08-19T07:14:55;101474.44;;;20.57;75.89
72900;BME280;61043;52.036;5.566;2022-08-19T07:17:23;101469.75;;;20.59;75.90
72900;BME280;61043;52.036;5.566;2022-08-19T07:19:50;101471.28;;;20.61;75.66
72900;BME280;61043;52.036;5.566;2022-08-19T07:22:20;101485.03;;;20.76;75.57
72900;BME280;61043;52.036;5.566;2022-08-19T07:24:50;101467.28;;;20.65;75.16
72900;BME280;61043;52.036;5.566;2022-08-19T07:27:18;101476.97;;;20.76;75.46
72900;BME280;61043;52.036;5.566;2022-08-19T07:29:51;101483.03;;;20.78;74.20
72900;BME280;61043;52.036;5.566;2022-08-19T07:32:24;101487.88;;;20.75;74.53
72900;BME280;61043;52.036;5.566;2022-08-19T07:34:53;101479.09;;;20.72;74.78
72900;BME280;61043;52.036;5.566;2022-08-19T07:37:22;101487.41;;;20.79;74.58
72900;BME280;61043;52.036;5.566;2022-08-19T07:39:49;101489.00;;;20.90;74.48
72900;BME280;61043;52.036;5.566;2022-08-19T07:42:15;101485.69;;;20.96;74.64
72900;BME280;61043;52.036;5.566;2022-08-19T07:44:45;101486.03;;;21.01;75.17
72900;BME280;61043;52.036;5.566;2022-08-19T07:47:16;101474.97;;;21.04;74.47
72900;BME280;61043;52.036;5.566;2022-08-19T07:50:07;101488.31;;;21.14;74.38
72900;BME280;61043;52.036;5.566;2022-08-19T07:52:36;101478.78;;;21.20;73.67
72900;BME280;61043;52.036;5.566;2022-08-19T07:55:04;101469.72;;;21.29;73.51
72900;BME280;61043;52.036;5.566;2022-08-19T07:57:31;101460.28;;;21.25;72.59
72900;BME280;61043;52.036;5.566;2022-08-19T07:59:58;101483.84;;;21.49;72.39
72900;BME280;61043;52.036;5.566;2022-08-19T08:02:25;101499.28;;;21.73;71.04
72900;BME280;61043;52.036;5.566;2022-08-19T08:04:51;101494.25;;;21.86;70.10
72900;BME280;61043;52.036;5.566;2022-08-19T08:07:37;101496.16;;;22.02;69.84
72900;BME280;61043;52.036;5.566;2022-08-19T08:10:22;101504.22;;;21.94;69.35
72900;BME280;61043;52.036;5.566;2022-08-19T08:12:50;101516.22;;;21.99;69.38
72900;BME280;61043;52.036;5.566;2022-08-19T08:15:36;101520.81;;;22.15;68.86
72900;BME280;61043;52.036;5.566;2022-08-19T08:18:08;101511.84;;;22.07;69.20
72900;BME280;61043;52.036;5.566;2022-08-19T08:20:35;101507.16;;;22.17;68.60
72900;BME280;61043;52.036;5.566;2022-08-19T08:23:02;101519.13;;;22.14;69.28
72900;BME280;61043;52.036;5.566;2022-08-19T08:25:48;101516.94;;;22.18;68.22
72900;BME280;61043;52.036;5.566;2022-08-19T08:28:16;101506.47;;;22.07;68.52
72900;BME280;61043;52.036;5.566;2022-08-19T08:30:44;101517.59;;;22.03;69.23
72900;BME280;61043;52.036;5.566;2022-08-19T08:33:22;101520.63;;;22.09;69.01
72900;BME280;61043;52.036;5.566;2022-08-19T08:36:07;101525.09;;;22.26;68.00
72900;BME280;61043;52.036;5.566;2022-08-19T08:38:35;101524.09;;;22.43;68.28
72900;BME280;61043;52.036;5.566;2022-08-19T08:41:28;101540.34;;;22.60;67.06
72900;BME280;61043;52.036;5.566;2022-08-19T08:43:58;101537.16;;;22.89;66.47
72900;BME280;61043;52.036;5.566;2022-08-19T08:46:37;101543.22;;;23.24;65.02
72900;BME280;61043;52.036;5.566;2022-08-19T08:49:27;101539.34;;;23.18;63.74
72900;BME280;61043;52.036;5.566;2022-08-19T08:52:03;101550.16;;;23.18;65.41
72900;BME280;61043;52.036;5.566;2022-08-19T08:54:37;101545.78;;;23.17;65.58
72900;BME280;61043;52.036;5.566;2022-08-19T08:57:09;101544.59;;;23.11;65.10
72900;BME280;61043;52.036;5.566;2022-08-19T08:59:40;101539.00;;;23.21;65.55
72900;BME280;61043;52.036;5.566;2022-08-19T09:02:08;101526.66;;;23.19;65.44
72900;BME280;61043;52.036;5.566;2022-08-19T09:04:36;101556.22;;;23.20;66.05
72900;BME280;61043;52.036;5.566;2022-08-19T09:15:10;101536.16;;;23.06;65.59
72900;BME280;61043;52.036;5.566;2022-08-19T09:17:38;101550.63;;;23.38;63.97
72900;BME280;61043;52.036;5.566;2022-08-19T09:20:17;101537.88;;;23.71;62.41
72900;BME280;61043;52.036;5.566;2022-08-19T09:22:45;101547.81;;;23.71;62.33
72900;BME280;61043;52.036;5.566;2022-08-19T09:25:15;101537.19;;;23.77;62.79
72900;BME280;61043;52.036;5.566;2022-08-19T09:27:51;101535.13;;;23.88;62.65
72900;BME280;61043;52.036;5.566;2022-08-19T09:30:26;101524.63;;;23.93;62.46
72900;BME280;61043;52.036;5.566;2022-08-19T09:32:56;101540.44;;;24.04;61.95
72900;BME280;61043;52.036;5.566;2022-08-19T09:35:25;101529.25;;;24.15;62.05
72900;BME280;61043;52.036;5.566;2022-08-19T09:37:53;101532.81;;;24.47;61.08
72900;BME280;61043;52.036;5.566;2022-08-19T09:40:28;101529.88;;;24.57;60.69
72900;BME280;61043;52.036;5.566;2022-08-19T09:42:58;101538.22;;;24.47;60.19
72900;BME280;61043;52.036;5.566;2022-08-19T09:45:35;101537.47;;;24.53;59.84
72900;BME280;61043;52.036;5.566;2022-08-19T09:48:02;101534.31;;;24.73;59.95
72900;BME280;61043;52.036;5.566;2022-08-19T09:50:29;101519.44;;;24.69;59.18
72900;BME280;61043;52.036;5.566;2022-08-19T09:53:17;101537.56;;;24.68;60.29
72900;BME280;61043;52.036;5.566;2022-08-19T09:55:44;101526.28;;;24.56;59.16
72900;BME280;61043;52.036;5.566;2022-08-19T09:58:11;101548.84;;;24.72;59.63
72900;BME280;61043;52.036;5.566;2022-08-19T10:00:38;101531.09;;;24.92;58.74
72900;BME280;61043;52.036;5.566;2022-08-19T10:03:04;101530.94;;;25.08;58.25
72900;BME280;61043;52.036;5.566;2022-08-19T10:05:32;101545.28;;;24.94;58.14
72900;BME280;61043;52.036;5.566;2022-08-19T10:08:30;101538.50;;;24.98;58.29
72900;BME280;61043;52.036;5.566;2022-08-19T10:10:59;101549.28;;;25.21;57.69
72900;BME280;61043;52.036;5.566;2022-08-19T10:13:48;101544.09;;;25.49;56.55
72900;BME280;61043;52.036;5.566;2022-08-19T10:16:17;101530.28;;;25.59;56.20
72900;BME280;61043;52.036;5.566;2022-08-19T10:18:46;101539.34;;;25.81;55.59
72900;BME280;61043;52.036;5.566;2022-08-19T10:21:21;101548.25;;;25.90;55.64
72900;BME280;61043;52.036;5.566;2022-08-19T10:23:55;101532.69;;;25.99;55.17
72900;BME280;61043;52.036;5.566;2022-08-19T10:26:29;101535.50;;;26.05;55.56
72900;BME280;61043;52.036;5.566;2022-08-19T10:28:56;101535.78;;;25.66;56.19
72900;BME280;61043;52.036;5.566;2022-08-19T10:31:27;101539.63;;;25.71;57.02
72900;BME280;61043;52.036;5.566;2022-08-19T10:34:13;101522.41;;;25.94;56.16
72900;BME280;61043;52.036;5.566;2022-08-19T10:36:54;101519.69;;;26.30;55.14
72900;BME280;61043;52.036;5.566;2022-08-19T10:39:27;101535.69;;;26.25;55.05
72900;BME280;61043;52.036;5.566;2022-08-19T10:42:06;101529.59;;;26.02;55.44
72900;BME280;61043;52.036;5.566;2022-08-19T10:44:33;101525.13;;;25.79;55.94
72900;BME280;61043;52.036;5.566;2022-08-19T10:47:03;101528.13;;;25.84;56.30
72900;BME280;61043;52.036;5.566;2022-08-19T10:49:43;101532.78;;;25.90;56.53
72900;BME280;61043;52.036;5.566;2022-08-19T10:52:28;101533.44;;;25.78;56.49
72900;BME280;61043;52.036;5.566;2022-08-19T10:55:05;101529.44;;;25.88;56.38
72900;BME280;61043;52.036;5.566;2022-08-19T10:57:54;101524.75;;;25.97;56.08
72900;BME280;61043;52.036;5.566;2022-08-19T11:00:28;101522.19;;;26.10;55.70
72900;BME280;61043;52.036;5.566;2022-08-19T11:02:57;101522.63;;;26.14;54.90
72900;BME280;61043;52.036;5.566;2022-08-19T11:05:23;101522.84;;;26.12;55.46
72900;BME280;61043;52.036;5.566;2022-08-19T11:07:50;101516.75;;;26.47;54.21
72900;BME280;61043;52.036;5.566;2022-08-19T11:10:18;101506.81;;;26.54;53.94
72900;BME280;61043;52.036;5.566;2022-08-19T11:12:48;101514.59;;;26.42;54.47
72900;BME280;61043;52.036;5.566;2022-08-19T11:15:15;101511.38;;;26.53;54.67
72900;BME280;61043;52.036;5.566;2022-08-19T11:17:42;101507.69;;;26.61;54.84
72900;BME280;61043;52.036;5.566;2022-08-19T11:20:12;101503.44;;;27.01;54.13
72900;BME280;61043;52.036;5.566;2022-08-19T11:22:40;101508.84;;;27.23;53.33
72900;BME280;61043;52.036;5.566;2022-08-19T11:25:09;101517.56;;;27.40;53.38
72900;BME280;61043;52.036;5.566;2022-08-19T11:27:38;101499.69;;;27.31;52.89
72900;BME280;61043;52.036;5.566;2022-08-19T11:30:10;101509.53;;;27.04;53.34
72900;BME280;61043;52.036;5.566;2022-08-19T11:32:41;101509.47;;;26.97;53.74
72900;BME280;61043;52.036;5.566;2022-08-19T11:35:15;101509.31;;;27.05;53.89
72900;BME280;61043;52.036;5.566;2022-08-19T11:37:42;101507.19;;;26.72;54.17
72900;BME280;61043;52.036;5.566;2022-08-19T11:40:09;101507.25;;;26.57;54.77
72900;BME280;61043;52.036;5.566;2022-08-19T11:42:36;101500.88;;;26.50;55.47
72900;BME280;61043;52.036;5.566;2022-08-19T11:45:24;101506.59;;;26.77;54.74
72900;BME280;61043;52.036;5.566;2022-08-19T11:47:50;101498.44;;;27.05;54.27
72900;BME280;61043;52.036;5.566;2022-08-19T11:50:18;101499.78;;;27.16;53.30
72900;BME280;61043;52.036;5.566;2022-08-19T11:52:46;101494.63;;;27.62;52.97
72900;BME280;61043;52.036;5.566;2022-08-19T11:55:13;101489.31;;;27.41;52.69
72900;BME280;61043;52.036;5.566;2022-08-19T11:57:40;101489.50;;;27.39;52.75
72900;BME280;61043;52.036;5.566;2022-08-19T12:00:10;101495.31;;;27.30;53.22
72900;BME280;61043;52.036;5.566;2022-08-19T12:02:39;101490.72;;;27.37;53.55
72900;BME280;61043;52.036;5.566;2022-08-19T12:05:07;101489.78;;;27.51;53.36
72900;BME280;61043;52.036;5.566;2022-08-19T12:07:38;101496.28;;;27.57;52.99
72900;BME280;61043;52.036;5.566;2022-08-19T12:10:05;101505.69;;;27.54;53.44
72900;BME280;61043;52.036;5.566;2022-08-19T12:12:33;101506.09;;;27.51;53.36
72900;BME280;61043;52.036;5.566;2022-08-19T12:15:00;101491.69;;;27.57;53.03
72900;BME280;61043;52.036;5.566;2022-08-19T12:17:26;101500.34;;;27.74;52.12
72900;BME280;61043;52.036;5.566;2022-08-19T12:19:53;101507.63;;;27.60;53.23
72900;BME280;61043;52.036;5.566;2022-08-19T12:22:20;101505.47;;;27.21;54.02
72900;BME280;61043;52.036;5.566;2022-08-19T12:24:48;101511.88;;;27.35;53.81
72900;BME280;61043;52.036;5.566;2022-08-19T12:27:17;101501.09;;;27.55;53.13
72900;BME280;61043;52.036;5.566;2022-08-19T12:30:06;101499.75;;;27.79;52.82
72900;BME280;61043;52.036;5.566;2022-08-19T12:32:34;101490.22;;;28.09;52.13
72900;BME280;61043;52.036;5.566;2022-08-19T12:35:01;101489.44;;;28.29;51.71
72900;BME280;61043;52.036;5.566;2022-08-19T12:37:27;101492.78;;;28.18;52.01
72900;BME280;61043;52.036;5.566;2022-08-19T12:39:54;101476.00;;;28.07;51.39
72900;BME280;61043;52.036;5.566;2022-08-19T12:42:21;101468.91;;;28.20;51.63
72900;BME280;61043;52.036;5.566;2022-08-19T12:44:48;101478.19;;;28.59;50.62
72900;BME280;61043;52.036;5.566;2022-08-19T12:47:15;101478.63;;;28.69;50.00
72900;BME280;61043;52.036;5.566;2022-08-19T12:49:45;101473.16;;;28.56;50.27
72900;BME280;61043;52.036;5.566;2022-08-19T12:52:21;101474.75;;;28.17;51.16
72900;BME280;61043;52.036;5.566;2022-08-19T12:54:50;101477.59;;;27.82;51.81
72900;BME280;61043;52.036;5.566;2022-08-19T12:57:20;101473.88;;;27.48;53.49
72900;BME280;61043;52.036;5.566;2022-08-19T12:59:57;101473.00;;;27.41;53.78
72900;BME280;61043;52.036;5.566;2022-08-19T13:02:24;101463.16;;;27.40;54.02
72900;BME280;61043;52.036;5.566;2022-08-19T13:04:51;101469.66;;;27.45;54.09
72900;BME280;61043;52.036;5.566;2022-08-19T13:07:17;101472.50;;;27.31;53.67
72900;BME280;61043;52.036;5.566;2022-08-19T13:09:44;101466.28;;;27.09;54.70
72900;BME280;61043;52.036;5.566;2022-08-19T13:12:11;101475.34;;;26.88;55.35
72900;BME280;61043;52.036;5.566;2022-08-19T13:14:39;101457.44;;;26.72;56.22
72900;BME280;61043;52.036;5.566;2022-08-19T13:17:07;101475.22;;;26.74;55.79
72900;BME280;61043;52.036;5.566;2022-08-19T13:19:36;101472.25;;;26.69;55.93
72900;BME280;61043;52.036;5.566;2022-08-19T13:22:03;101472.91;;;26.71;58.81